sensor_id;sensor_type;location;lat;lon;timestamp;temperature;humidity
12223;DHT22;6174;49.058;8.524;2023-04-06T05:00:29;0.90;99.90
12223;DHT22;6174;49.058;8.524;2023-04-06T05:02:56;0.90;99.90
12223;DHT22;6174;49.058;8.524;2023-04-06T05:05:22;0.90;99.90
12223;DHT22;6174;49.058;8.524;2023-04-06T05:07:49;1.00;99.90
12223;DHT22;6174;49.058;8.524;2023-04-06T05:10:16;1.00;99.90
12223;DHT22;6174;49.058;8.524;2023-04-06T05:12:43;1.00;99.90
12223;DHT22;6174;49.058;8.524;2023-04-06T05:15:10;1.00;99.90
12223;DHT22;6174;49.058;8.524;2023-04-06T05:17:39;1.00;99.90
12223;DHT22;6174;49.058;8.524;2023-04-06T05:20:07;1.00;99.90
12223;DHT22;6174;49.058;8.524;2023-04-06T05:22:34;1.00;99.90
12223;DHT22;6174;49.058;8.524;2023-04-06T05:25:01;1.10;99.90
12223;DHT22;6174;49.058;8.524;2023-04-06T05:27:29;1.50;99.90
12223;DHT22;6174;49.058;8.524;2023-04-06T05:29:56;1.10;99.90
12223;DHT22;6174;49.058;8.524;2023-04-06T05:32:23;1.10;99.90
12223;DHT22;6174;49.058;8.524;2023-04-06T05:34:51;1.20;99.90
12223;DHT22;6174;49.058;8.524;2023-04-06T05:37:18;1.20;99.90
12223;DHT22;6174;49.058;8.524;2023-04-06T05:39:45;1.30;99.90
12223;DHT22;6174;49.058;8.524;2023-04-06T05:42:12;1.30;99.90
12223;DHT22;6174;49.058;8.524;2023-04-06T05:44:39;1.30;99.90
12223;DHT22;6174;49.058;8.524;2023-04-06T05:47:06;1.30;99.90
12223;DHT22;6174;49.058;8.524;2023-04-06T05:49:33;1.30;99.90
12223;DHT22;6174;49.058;8.524;2023-04-06T05:52:02;2.00;99.90
12223;DHT22;6174;49.058;8.524;2023-04-06T05:54:29;1.60;99.90
12223;DHT22;6174;49.058;8.524;2023-04-06T05:56:56;1.60;99.90
12223;DHT22;6174;49.058;8.524;2023-04-06T05:59:23;1.70;99.90
12223;DHT22;6174;49.058;8.524;2023-04-06T06:01:50;1.70;99.90
12223;DHT22;6174;49.058;8.524;2023-04-06T06:04:17;1.80;99.90
12223;DHT22;6174;49.058;8.524;2023-04-06T06:06:44;1.90;99.90
12223;DHT22;6174;49.058;8.524;2023-04-06T06:09:12;2.10;99.90
12223;DHT22;6174;49.058;8.524;2023-04-06T06:11:40;2.10;99.60
12223;DHT22;6174;49.058;8.524;2023-04-06T06:14:07;2.20;99.50
12223;DHT22;6174;49.058;8.524;2023-04-06T06:16:34;2.30;99.70
12223;DHT22;6174;49.058;8.524;2023-04-06T06:19:01;2.40;99.80
12223;DHT22;6174;49.058;8.524;2023-04-06T06:21:28;2.60;99.80
12223;DHT22;6174;49.058;8.524;2023-04-06T06:23:56;2.80;99.70
12223;DHT22;6174;49.058;8.524;2023-04-06T06:26:24;2.90;99.00
12223;DHT22;6174;49.058;8.524;2023-04-06T06:28:52;3.10;98.50
12223;DHT22;6174;49.058;8.524;2023-04-06T06:31:19;3.20;97.80
12223;DHT22;6174;49.058;8.524;2023-04-06T06:33:48;3.30;97.30
12223;DHT22;6174;49.058;8.524;2023-04-06T06:36:15;3.50;97.60
12223;DHT22;6174;49.058;8.524;2023-04-06T06:38:43;3.60;97.00
12223;DHT22;6174;49.058;8.524;2023-04-06T06:41:10;3.80;96.50
12223;DHT22;6174;49.058;8.524;2023-04-06T06:43:38;4.00;96.00
12223;DHT22;6174;49.058;8.524;2023-04-06T06:46:06;4.30;95.00
12223;DHT22;6174;49.058;8.524;2023-04-06T06:48:33;4.50;95.00
12223;DHT22;6174;49.058;8.524;2023-04-06T06:51:00;4.80;94.30
12223;DHT22;6174;49.058;8.524;2023-04-06T06:53:27;4.90;92.90
12223;DHT22;6174;49.058;8.524;2023-04-06T06:55:54;5.10;92.60
12223;DHT22;6174;49.058;8.524;2023-04-06T06:58:21;5.20;92.30
12223;DHT22;6174;49.058;8.524;2023-04-06T07:00:49;5.40;91.20
12223;DHT22;6174;49.058;8.524;2023-04-06T07:03:16;5.60;91.20
12223;DHT22;6174;49.058;8.524;2023-04-06T07:05:45;5.80;90.70
12223;DHT22;6174;49.058;8.524;2023-04-06T07:08:18;6.00;90.90
12223;DHT22;6174;49.058;8.524;2023-04-06T07:10:45;6.30;90.30
12223;DHT22;6174;49.058;8.524;2023-04-06T07:13:12;6.60;90.00
12223;DHT22;6174;49.058;8.524;2023-04-06T07:15:43;6.70;88.10
12223;DHT22;6174;49.058;8.524;2023-04-06T07:18:12;7.00;88.20
12223;DHT22;6174;49.058;8.524;2023-04-06T07:20:39;7.30;87.30
12223;DHT22;6174;49.058;8.524;2023-04-06T07:23:06;7.50;87.40
12223;DHT22;6174;49.058;8.524;2023-04-06T07:25:33;7.70;84.70
12223;DHT22;6174;49.058;8.524;2023-04-06T07:28:00;8.00;83.60
12223;DHT22;6174;49.058;8.524;2023-04-06T07:30:27;8.30;83.40
12223;DHT22;6174;49.058;8.524;2023-04-06T07:32:54;8.50;81.20
12223;DHT22;6174;49.058;8.524;2023-04-06T07:35:23;8.60;78.60
12223;DHT22;6174;49.058;8.524;2023-04-06T07:37:50;8.50;77.90
12223;DHT22;6174;49.058;8.524;2023-04-06T07:40:17;8.50;78.70
12223;DHT22;6174;49.058;8.524;2023-04-06T07:42:45;8.40;78.50
12223;DHT22;6174;49.058;8.524;2023-04-06T07:45:12;8.40;79.60
12223;DHT22;6174;49.058;8.524;2023-04-06T07:47:39;8.40;79.10
12223;DHT22;6174;49.058;8.524;2023-04-06T07:50:07;8.30;79.20
12223;DHT22;6174;49.058;8.524;2023-04-06T07:52:35;8.20;80.00
12223;DHT22;6174;49.058;8.524;2023-04-06T07:55:02;8.20;79.50
12223;DHT22;6174;49.058;8.524;2023-04-06T07:57:29;8.20;81.80
12223;DHT22;6174;49.058;8.524;2023-04-06T07:59:56;8.20;80.70
12223;DHT22;6174;49.058;8.524;2023-04-06T08:02:23;8.20;81.30
12223;DHT22;6174;49.058;8.524;2023-04-06T08:04:50;8.30;83.30
12223;DHT22;6174;49.058;8.524;2023-04-06T08:07:17;8.30;82.40
12223;DHT22;6174;49.058;8.524;2023-04-06T08:09:45;8.30;82.10
12223;DHT22;6174;49.058;8.524;2023-04-06T08:12:12;8.50;82.40
12223;DHT22;6174;49.058;8.524;2023-04-06T08:14:39;8.60;80.90
12223;DHT22;6174;49.058;8.524;2023-04-06T08:17:06;8.50;82.00
12223;DHT22;6174;49.058;8.524;2023-04-06T08:19:33;8.30;80.80
12223;DHT22;6174;49.058;8.524;2023-04-06T08:22:00;8.20;82.40
12223;DHT22;6174;49.058;8.524;2023-04-06T08:24:28;8.10;83.10
12223;DHT22;6174;49.058;8.524;2023-04-06T08:26:56;8.10;84.10
12223;DHT22;6174;49.058;8.524;2023-04-06T08:29:23;8.20;83.50
12223;DHT22;6174;49.058;8.524;2023-04-06T08:31:50;8.20;83.20
12223;DHT22;6174;49.058;8.524;2023-04-06T08:34:16;8.30;81.70
12223;DHT22;6174;49.058;8.524;2023-04-06T08:36:43;8.40;81.70
12223;DHT22;6174;49.058;8.524;2023-04-06T08:39:11;8.40;81.40
12223;DHT22;6174;49.058;8.524;2023-04-06T08:41:38;8.40;79.40
12223;DHT22;6174;49.058;8.524;2023-04-06T08:44:06;8.20;79.90
12223;DHT22;6174;49.058;8.524;2023-04-06T08:46:33;8.10;79.50
12223;DHT22;6174;49.058;8.524;2023-04-06T08:49:02;8.20;80.80
12223;DHT22;6174;49.058;8.524;2023-04-06T08:51:32;8.30;81.20
12223;DHT22;6174;49.058;8.524;2023-04-06T08:53:59;8.40;78.90
12223;DHT22;6174;49.058;8.524;2023-04-06T08:56:27;8.50;79.50
12223;DHT22;6174;49.058;8.524;2023-04-06T08:58:55;8.60;78.70
12223;DHT22;6174;49.058;8.524;2023-04-06T09:01:27;8.80;79.10
12223;DHT22;6174;49.058;8.524;2023-04-06T09:03:57;9.00;77.40
12223;DHT22;6174;49.058;8.524;2023-04-06T09:06:26;9.30;77.10
12223;DHT22;6174;49.058;8.524;2023-04-06T09:08:53;9.50;77.60
12223;DHT22;6174;49.058;8.524;2023-04-06T09:11:21;9.70;76.40
12223;DHT22;6174;49.058;8.524;2023-04-06T09:13:49;9.70;75.20
12223;DHT22;6174;49.058;8.524;2023-04-06T09:16:17;9.60;74.00
12223;DHT22;6174;49.058;8.524;2023-04-06T09:18:46;9.60;75.70
12223;DHT22;6174;49.058;8.524;2023-04-06T09:21:16;9.60;73.80
12223;DHT22;6174;49.058;8.524;2023-04-06T09:23:43;9.60;75.40
12223;DHT22;6174;49.058;8.524;2023-04-06T09:26:11;9.60;73.90
12223;DHT22;6174;49.058;8.524;2023-04-06T09:28:46;9.60;73.60
12223;DHT22;6174;49.058;8.524;2023-04-06T09:31:14;9.80;73.40
12223;DHT22;6174;49.058;8.524;2023-04-06T09:33:43;9.90;72.80
12223;DHT22;6174;49.058;8.524;2023-04-06T09:36:12;10.10;74.20
12223;DHT22;6174;49.058;8.524;2023-04-06T09:38:52;10.20;71.70
12223;DHT22;6174;49.058;8.524;2023-04-06T09:41:23;9.90;71.50
12223;DHT22;6174;49.058;8.524;2023-04-06T09:43:51;9.90;73.70
12223;DHT22;6174;49.058;8.524;2023-04-06T09:46:20;10.00;71.70
12223;DHT22;6174;49.058;8.524;2023-04-06T09:48:49;9.90;72.50
12223;DHT22;6174;49.058;8.524;2023-04-06T09:51:18;10.10;72.40
12223;DHT22;6174;49.058;8.524;2023-04-06T09:53:52;10.20;72.50
12223;DHT22;6174;49.058;8.524;2023-04-06T09:56:23;10.30;72.30
12223;DHT22;6174;49.058;8.524;2023-04-06T09:58:54;10.50;73.50
12223;DHT22;6174;49.058;8.524;2023-04-06T10:01:26;10.50;69.30
12223;DHT22;6174;49.058;8.524;2023-04-06T10:03:59;10.60;70.20
12223;DHT22;6174;49.058;8.524;2023-04-06T10:06:33;10.50;68.70
12223;DHT22;6174;49.058;8.524;2023-04-06T10:09:02;10.50;68.80
12223;DHT22;6174;49.058;8.524;2023-04-06T10:11:30;10.80;70.80
12223;DHT22;6174;49.058;8.524;2023-04-06T10:13:57;10.90;68.10
12223;DHT22;6174;49.058;8.524;2023-04-06T10:16:25;11.00;69.10
12223;DHT22;6174;49.058;8.524;2023-04-06T10:18:56;11.30;69.30
12223;DHT22;6174;49.058;8.524;2023-04-06T10:21:26;11.40;67.90
12223;DHT22;6174;49.058;8.524;2023-04-06T10:23:58;11.50;63.40
12223;DHT22;6174;49.058;8.524;2023-04-06T10:26:25;11.50;63.60
12223;DHT22;6174;49.058;8.524;2023-04-06T10:28:52;11.40;63.90
12223;DHT22;6174;49.058;8.524;2023-04-06T10:31:29;11.30;65.00
12223;DHT22;6174;49.058;8.524;2023-04-06T10:33:56;11.40;65.60
12223;DHT22;6174;49.058;8.524;2023-04-06T10:36:26;11.30;64.10
12223;DHT22;6174;49.058;8.524;2023-04-06T10:38:57;11.20;62.50
12223;DHT22;6174;49.058;8.524;2023-04-06T10:41:31;11.20;62.00
12223;DHT22;6174;49.058;8.524;2023-04-06T10:43:59;11.30;60.30
12223;DHT22;6174;49.058;8.524;2023-04-06T10:46:28;11.30;59.20
12223;DHT22;6174;49.058;8.524;2023-04-06T10:48:55;11.30;61.60
12223;DHT22;6174;49.058;8.524;2023-04-06T10:51:25;11.40;61.40
12223;DHT22;6174;49.058;8.524;2023-04-06T10:53:55;11.40;60.30
12223;DHT22;6174;49.058;8.524;2023-04-06T10:56:24;11.60;60.00
12223;DHT22;6174;49.058;8.524;2023-04-06T10:58:54;11.80;62.80
12223;DHT22;6174;49.058;8.524;2023-04-06T11:01:23;12.00;61.00
12223;DHT22;6174;49.058;8.524;2023-04-06T11:03:51;12.00;58.90
12223;DHT22;6174;49.058;8.524;2023-04-06T11:06:24;12.00;60.80
12223;DHT22;6174;49.058;8.524;2023-04-06T11:08:57;12.10;61.30
12223;DHT22;6174;49.058;8.524;2023-04-06T11:11:25;12.30;60.10
12223;DHT22;6174;49.058;8.524;2023-04-06T11:13:54;12.40;59.40
12223;DHT22;6174;49.058;8.524;2023-04-06T11:16:22;12.50;61.10
12223;DHT22;6174;49.058;8.524;2023-04-06T11:18:50;12.30;58.40
12223;DHT22;6174;49.058;8.524;2023-04-06T11:21:18;12.30;61.30
12223;DHT22;6174;49.058;8.524;2023-04-06T11:23:45;12.40;60.10
12223;DHT22;6174;49.058;8.524;2023-04-06T11:26:15;12.30;57.80
12223;DHT22;6174;49.058;8.524;2023-04-06T11:28:43;12.30;59.80
12223;DHT22;6174;49.058;8.524;2023-04-06T11:31:10;12.50;59.90
12223;DHT22;6174;49.058;8.524;2023-04-06T11:33:37;12.50;59.10
12223;DHT22;6174;49.058;8.524;2023-04-06T11:36:06;12.70;60.40
12223;DHT22;6174;49.058;8.524;2023-04-06T11:38:33;12.80;58.80
12223;DHT22;6174;49.058;8.524;2023-04-06T11:41:01;12.90;58.60
12223;DHT22;6174;49.058;8.524;2023-04-06T11:43:31;12.90;57.60
12223;DHT22;6174;49.058;8.524;2023-04-06T11:46:01;12.90;58.50
12223;DHT22;6174;49.058;8.524;2023-04-06T11:48:29;12.90;60.10
12223;DHT22;6174;49.058;8.524;2023-04-06T11:50:56;12.90;58.70
12223;DHT22;6174;49.058;8.524;2023-04-06T11:53:24;12.80;57.30
12223;DHT22;6174;49.058;8.524;2023-04-06T11:55:51;12.70;58.40
12223;DHT22;6174;49.058;8.524;2023-04-06T11:58:18;12.90;60.20
12223;DHT22;6174;49.058;8.524;2023-04-06T12:00:46;13.00;60.10
12223;DHT22;6174;49.058;8.524;2023-04-06T12:03:14;13.30;58.70
12223;DHT22;6174;49.058;8.524;2023-04-06T12:05:41;13.00;56.00
12223;DHT22;6174;49.058;8.524;2023-04-06T12:08:07;12.80;55.80
12223;DHT22;6174;49.058;8.524;2023-04-06T12:10:34;12.80;56.70
12223;DHT22;6174;49.058;8.524;2023-04-06T12:13:01;12.90;58.40
12223;DHT22;6174;49.058;8.524;2023-04-06T12:15:28;13.10;55.40
12223;DHT22;6174;49.058;8.524;2023-04-06T12:17:56;13.30;55.20
12223;DHT22;6174;49.058;8.524;2023-04-06T12:20:23;13.00;54.60
12223;DHT22;6174;49.058;8.524;2023-04-06T12:22:50;13.10;55.10
12223;DHT22;6174;49.058;8.524;2023-04-06T12:25:17;13.00;53.00
12223;DHT22;6174;49.058;8.524;2023-04-06T12:27:44;13.00;53.70
12223;DHT22;6174;49.058;8.524;2023-04-06T12:30:11;13.10;54.20
12223;DHT22;6174;49.058;8.524;2023-04-06T12:32:38;13.10;55.40
12223;DHT22;6174;49.058;8.524;2023-04-06T12:35:08;13.00;54.50
12223;DHT22;6174;49.058;8.524;2023-04-06T12:37:37;13.00;55.40
12223;DHT22;6174;49.058;8.524;2023-04-06T12:40:05;13.20;56.40
12223;DHT22;6174;49.058;8.524;2023-04-06T12:42:32;13.30;56.30
12223;DHT22;6174;49.058;8.524;2023-04-06T12:44:59;13.50;54.20
12223;DHT22;6174;49.058;8.524;2023-04-06T12:47:26;13.60;52.00
12223;DHT22;6174;49.058;8.524;2023-04-06T12:49:53;13.70;52.90
12223;DHT22;6174;49.058;8.524;2023-04-06T12:52:22;13.70;53.20
12223;DHT22;6174;49.058;8.524;2023-04-06T12:54:49;13.60;51.80
12223;DHT22;6174;49.058;8.524;2023-04-06T12:57:16;13.70;53.60
12223;DHT22;6174;49.058;8.524;2023-04-06T12:59:44;13.70;52.90
12223;DHT22;6174;49.058;8.524;2023-04-06T13:02:11;13.60;52.90
12223;DHT22;6174;49.058;8.524;2023-04-06T13:04:38;13.60;53.40
12223;DHT22;6174;49.058;8.524;2023-04-06T13:07:05;13.70;52.70
12223;DHT22;6174;49.058;8.524;2023-04-06T13:09:34;13.70;54.80
12223;DHT22;6174;49.058;8.524;2023-04-06T13:12:00;13.70;54.20
12223;DHT22;6174;49.058;8.524;2023-04-06T13:14:27;13.80;54.00
12223;DHT22;6174;49.058;8.524;2023-04-06T13:16:54;13.40;51.00
12223;DHT22;6174;49.058;8.524;2023-04-06T13:19:21;13.40;52.50
12223;DHT22;6174;49.058;8.524;2023-04-06T13:21:48;13.40;55.90
12223;DHT22;6174;49.058;8.524;2023-04-06T13:24:15;13.40;52.90
12223;DHT22;6174;49.058;8.524;2023-04-06T13:26:43;13.40;53.20
12223;DHT22;6174;49.058;8.524;2023-04-06T13:29:10;13.40;55.70
12223;DHT22;6174;49.058;8.524;2023-04-06T13:31:37;13.40;54.00
12223;DHT22;6174;49.058;8.524;2023-04-06T13:34:04;13.40;53.00
12223;DHT22;6174;49.058;8.524;2023-04-06T13:36:31;13.40;53.90
12223;DHT22;6174;49.058;8.524;2023-04-06T13:38:58;13.40;54.10
12223;DHT22;6174;49.058;8.524;2023-04-06T13:41:25;13.50;54.40
12223;DHT22;6174;49.058;8.524;2023-04-06T13:43:54;13.50;54.90
12223;DHT22;6174;49.058;8.524;2023-04-06T13:46:21;13.40;53.10
12223;DHT22;6174;49.058;8.524;2023-04-06T13:48:49;13.40;52.60
12223;DHT22;6174;49.058;8.524;2023-04-06T13:51:16;13.40;51.80
12223;DHT22;6174;49.058;8.524;2023-04-06T13:53:43;13.50;51.20
12223;DHT22;6174;49.058;8.524;2023-04-06T13:56:10;13.60;52.60
12223;DHT22;6174;49.058;8.524;2023-04-06T13:58:36;13.60;52.30
12223;DHT22;6174;49.058;8.524;2023-04-06T14:01:06;13.70;51.60
12223;DHT22;6174;49.058;8.524;2023-04-06T14:03:35;13.70;51.80
12223;DHT22;6174;49.058;8.524;2023-04-06T14:06:09;13.60;50.00
12223;DHT22;6174;49.058;8.524;2023-04-06T14:08:36;13.60;48.60
12223;DHT22;6174;49.058;8.524;2023-04-06T14:11:03;13.50;47.80
12223;DHT22;6174;49.058;8.524;2023-04-06T14:13:30;13.40;47.40
12223;DHT22;6174;49.058;8.524;2023-04-06T14:15:57;13.50;48.10
12223;DHT22;6174;49.058;8.524;2023-04-06T14:18:25;13.60;48.90
12223;DHT22;6174;49.058;8.524;2023-04-06T14:20:56;13.60;47.70
12223;DHT22;6174;49.058;8.524;2023-04-06T14:23:24;13.60;45.90
12223;DHT22;6174;49.058;8.524;2023-04-06T14:26:01;13.60;48.90
12223;DHT22;6174;49.058;8.524;2023-04-06T14:28:32;13.60;46.10
12223;DHT22;6174;49.058;8.524;2023-04-06T14:30:59;13.60;46.90
12223;DHT22;6174;49.058;8.524;2023-04-06T14:33:27;13.70;47.30
12223;DHT22;6174;49.058;8.524;2023-04-06T14:35:55;13.60;45.70
12223;DHT22;6174;49.058;8.524;2023-04-06T14:38:22;13.70;46.50
12223;DHT22;6174;49.058;8.524;2023-04-06T14:40:49;13.70;44.90
12223;DHT22;6174;49.058;8.524;2023-04-06T14:43:16;13.70;46.30
12223;DHT22;6174;49.058;8.524;2023-04-06T14:45:43;13.80;47.10
12223;DHT22;6174;49.058;8.524;2023-04-06T14:48:10;13.80;45.70
12223;DHT22;6174;49.058;8.524;2023-04-06T14:50:39;13.80;48.00
12223;DHT22;6174;49.058;8.524;2023-04-06T14:53:06;13.90;48.20
12223;DHT22;6174;49.058;8.524;2023-04-06T14:55:32;14.00;49.70
12223;DHT22;6174;49.058;8.524;2023-04-06T14:57:59;13.90;49.40
12223;DHT22;6174;49.058;8.524;2023-04-06T15:00:26;13.80;50.80
12223;DHT22;6174;49.058;8.524;2023-04-06T15:02:53;13.70;51.20
12223;DHT22;6174;49.058;8.524;2023-04-06T15:05:20;13.70;51.60
12223;DHT22;6174;49.058;8.524;2023-04-06T15:07:48;13.70;51.90
12223;DHT22;6174;49.058;8.524;2023-04-06T15:10:15;13.70;52.30
12223;DHT22;6174;49.058;8.524;2023-04-06T15:12:42;13.70;51.80
12223;DHT22;6174;49.058;8.524;2023-04-06T15:15:09;13.70;51.60
12223;DHT22;6174;49.058;8.524;2023-04-06T15:17:36;13.60;51.70
12223;DHT22;6174;49.058;8.524;2023-04-06T15:20:03;13.50;52.80
12223;DHT22;6174;49.058;8.524;2023-04-06T15:22:30;13.50;52.10
12223;DHT22;6174;49.058;8.524;2023-04-06T15:24:58;13.40;53.00
12223;DHT22;6174;49.058;8.524;2023-04-06T15:27:25;13.50;52.40
12223;DHT22;6174;49.058;8.524;2023-04-06T15:29:52;13.40;51.00
12223;DHT22;6174;49.058;8.524;2023-04-06T15:32:19;13.40;51.40
12223;DHT22;6174;49.058;8.524;2023-04-06T15:34:46;13.40;52.30
12223;DHT22;6174;49.058;8.524;2023-04-06T15:37:12;13.30;52.10
12223;DHT22;6174;49.058;8.524;2023-04-06T15:39:39;13.30;52.30
12223;DHT22;6174;49.058;8.524;2023-04-06T15:42:07;13.30;54.30
12223;DHT22;6174;49.058;8.524;2023-04-06T15:44:34;13.20;53.10
12223;DHT22;6174;49.058;8.524;2023-04-06T15:47:01;13.20;52.70
12223;DHT22;6174;49.058;8.524;2023-04-06T15:49:28;13.20;52.30
12223;DHT22;6174;49.058;8.524;2023-04-06T15:51:54;13.20;53.90
12223;DHT22;6174;49.058;8.524;2023-04-06T15:54:21;13.30;54.70
12223;DHT22;6174;49.058;8.524;2023-04-06T15:56:48;13.30;54.80
12223;DHT22;6174;49.058;8.524;2023-04-06T15:59:16;13.40;55.00
12223;DHT22;6174;49.058;8.524;2023-04-06T16:01:49;13.40;54.90
12223;DHT22;6174;49.058;8.524;2023-04-06T16:04:18;13.40;55.40
12223;DHT22;6174;49.058;8.524;2023-04-06T16:06:45;13.40;55.30
12223;DHT22;6174;49.058;8.524;2023-04-06T16:09:12;13.40;55.50
12223;DHT22;6174;49.058;8.524;2023-04-06T16:11:39;13.40;56.10
12223;DHT22;6174;49.058;8.524;2023-04-06T16:14:06;13.30;55.60
12223;DHT22;6174;49.058;8.524;2023-04-06T16:16:34;13.20;56.00
12223;DHT22;6174;49.058;8.524;2023-04-06T16:19:01;13.10;55.60
12223;DHT22;6174;49.058;8.524;2023-04-06T16:21:28;13.00;56.10
12223;DHT22;6174;49.058;8.524;2023-04-06T16:23:55;13.00;56.20
12223;DHT22;6174;49.058;8.524;2023-04-06T16:26:22;12.90;56.30
12223;DHT22;6174;49.058;8.524;2023-04-06T16:28:50;12.90;56.00
12223;DHT22;6174;49.058;8.524;2023-04-06T16:31:18;12.90;56.50
12223;DHT22;6174;49.058;8.524;2023-04-06T16:33:47;12.90;57.10
12223;DHT22;6174;49.058;8.524;2023-04-06T16:36:20;12.90;56.80
12223;DHT22;6174;49.058;8.524;2023-04-06T16:38:47;12.90;56.70
12223;DHT22;6174;49.058;8.524;2023-04-06T16:41:13;12.90;57.10
12223;DHT22;6174;49.058;8.524;2023-04-06T16:43:40;12.80;57.20
12223;DHT22;6174;49.058;8.524;2023-04-06T16:46:07;12.80;57.20
12223;DHT22;6174;49.058;8.524;2023-04-06T16:48:34;12.90;58.30
12223;DHT22;6174;49.058;8.524;2023-04-06T16:51:05;12.80;57.20
12223;DHT22;6174;49.058;8.524;2023-04-06T16:53:32;12.70;56.00
12223;DHT22;6174;49.058;8.524;2023-04-06T16:55:58;12.70;56.60
12223;DHT22;6174;49.058;8.524;2023-04-06T16:58:25;12.70;56.40
12223;DHT22;6174;49.058;8.524;2023-04-06T17:00:52;12.70;56.90
12223;DHT22;6174;49.058;8.524;2023-04-06T17:03:19;12.70;57.80
12223;DHT22;6174;49.058;8.524;2023-04-06T17:05:45;12.60;59.20
12223;DHT22;6174;49.058;8.524;2023-04-06T17:08:13;12.50;59.50
12223;DHT22;6174;49.058;8.524;2023-04-06T17:10:40;12.50;60.00
12223;DHT22;6174;49.058;8.524;2023-04-06T17:13:07;12.50;60.50
12223;DHT22;6174;49.058;8.524;2023-04-06T17:15:34;12.40;60.30
12223;DHT22;6174;49.058;8.524;2023-04-06T17:18:00;12.40;61.00
12223;DHT22;6174;49.058;8.524;2023-04-06T17:20:27;12.30;61.10
12223;DHT22;6174;49.058;8.524;2023-04-06T17:22:54;12.30;60.80
12223;DHT22;6174;49.058;8.524;2023-04-06T17:25:22;12.20;61.00
12223;DHT22;6174;49.058;8.524;2023-04-06T17:27:49;12.30;62.10
12223;DHT22;6174;49.058;8.524;2023-04-06T17:30:16;12.30;62.40
12223;DHT22;6174;49.058;8.524;2023-04-06T17:32:43;12.30;62.60
12223;DHT22;6174;49.058;8.524;2023-04-06T17:35:10;12.10;61.80
12223;DHT22;6174;49.058;8.524;2023-04-06T17:37:37;12.10;62.30
12223;DHT22;6174;49.058;8.524;2023-04-06T17:40:06;12.10;62.60
12223;DHT22;6174;49.058;8.524;2023-04-06T17:42:34;12.00;63.50
12223;DHT22;6174;49.058;8.524;2023-04-06T17:45:01;12.00;64.40
12223;DHT22;6174;49.058;8.524;2023-04-06T17:47:28;11.80;65.20
12223;DHT22;6174;49.058;8.524;2023-04-06T17:49:56;11.80;65.40
12223;DHT22;6174;49.058;8.524;2023-04-06T17:52:23;11.70;64.90
12223;DHT22;6174;49.058;8.524;2023-04-06T17:54:50;11.70;65.20
12223;DHT22;6174;49.058;8.524;2023-04-06T17:57:17;11.80;64.80
12223;DHT22;6174;49.058;8.524;2023-04-06T17:59:45;11.80;65.20
12223;DHT22;6174;49.058;8.524;2023-04-06T18:02:12;11.70;66.30
12223;DHT22;6174;49.058;8.524;2023-04-06T18:04:39;11.60;66.70
12223;DHT22;6174;49.058;8.524;2023-04-06T18:07:09;11.70;67.10
12223;DHT22;6174;49.058;8.524;2023-04-06T18:09:36;11.70;68.00
12223;DHT22;6174;49.058;8.524;2023-04-06T18:12:03;11.60;68.90
12223;DHT22;6174;49.058;8.524;2023-04-06T18:14:30;11.50;69.70
12223;DHT22;6174;49.058;8.524;2023-04-06T18:16:58;11.50;69.30
12223;DHT22;6174;49.058;8.524;2023-04-06T18:19:25;11.40;70.90
12223;DHT22;6174;49.058;8.524;2023-04-06T18:21:53;11.40;71.00
12223;DHT22;6174;49.058;8.524;2023-04-06T18:24:20;11.40;70.20
12223;DHT22;6174;49.058;8.524;2023-04-06T18:26:46;11.40;70.50
12223;DHT22;6174;49.058;8.524;2023-04-06T18:29:13;11.40;71.20
12223;DHT22;6174;49.058;8.524;2023-04-06T18:31:40;11.50;71.90
12223;DHT22;6174;49.058;8.524;2023-04-06T18:34:09;11.40;72.40
12223;DHT22;6174;49.058;8.524;2023-04-06T18:36:36;11.30;74.10
12223;DHT22;6174;49.058;8.524;2023-04-06T18:39:03;11.20;74.30
12223;DHT22;6174;49.058;8.524;2023-04-06T18:41:30;11.20;74.00
12223;DHT22;6174;49.058;8.524;2023-04-06T18:43:56;11.30;75.20
12223;DHT22;6174;49.058;8.524;2023-04-06T18:46:23;11.20;75.80
12223;DHT22;6174;49.058;8.524;2023-04-06T18:48:50;11.10;76.70
12223;DHT22;6174;49.058;8.524;2023-04-06T18:51:18;11.10;77.80
12223;DHT22;6174;49.058;8.524;2023-04-06T18:53:45;11.00;78.50
12223;DHT22;6174;49.058;8.524;2023-04-06T18:56:12;11.00;79.00
12223;DHT22;6174;49.058;8.524;2023-04-06T18:58:40;11.00;79.30
12223;DHT22;6174;49.058;8.524;2023-04-06T19:01:07;10.90;79.30
12223;DHT22;6174;49.058;8.524;2023-04-06T19:03:33;11.00;79.50
12223;DHT22;6174;49.058;8.524;2023-04-06T19:06:01;10.90;79.20
12223;DHT22;6174;49.058;8.524;2023-04-06T19:08:29;10.90;80.40
12223;DHT22;6174;49.058;8.524;2023-04-06T19:10:56;10.80;81.30
12223;DHT22;6174;49.058;8.524;2023-04-06T19:13:23;10.70;82.30
12223;DHT22;6174;49.058;8.524;2023-04-06T19:15:51;10.80;82.20
12223;DHT22;6174;49.058;8.524;2023-04-06T19:18:18;10.70;82.40
12223;DHT22;6174;49.058;8.524;2023-04-06T19:20:45;10.70;83.10
12223;DHT22;6174;49.058;8.524;2023-04-06T19:23:11;10.70;83.50
12223;DHT22;6174;49.058;8.524;2023-04-06T19:25:41;10.70;84.60
12223;DHT22;6174;49.058;8.524;2023-04-06T19:28:08;10.60;85.50
12223;DHT22;6174;49.058;8.524;2023-04-06T19:30:35;10.70;87.10
12223;DHT22;6174;49.058;8.524;2023-04-06T19:33:02;10.60;88.00
12223;DHT22;6174;49.058;8.524;2023-04-06T19:35:29;10.60;89.50
12223;DHT22;6174;49.058;8.524;2023-04-06T19:37:57;10.50;89.90
12223;DHT22;6174;49.058;8.524;2023-04-06T19:40:24;10.50;90.10
12223;DHT22;6174;49.058;8.524;2023-04-06T19:42:52;10.40;91.10
12223;DHT22;6174;49.058;8.524;2023-04-06T19:45:24;10.40;91.60
12223;DHT22;6174;49.058;8.524;2023-04-06T19:47:51;10.30;92.10
12223;DHT22;6174;49.058;8.524;2023-04-06T19:50:17;10.20;93.40
12223;DHT22;6174;49.058;8.524;2023-04-06T19:52:44;10.10;94.70
12223;DHT22;6174;49.058;8.524;2023-04-06T19:55:11;10.00;97.30
12223;DHT22;6174;49.058;8.524;2023-04-06T19:57:38;9.90;97.40
12223;DHT22;6174;49.058;8.524;2023-04-06T20:00:08;9.90;97.40
12223;DHT22;6174;49.058;8.524;2023-04-06T20:02:35;9.80;97.70
12223;DHT22;6174;49.058;8.524;2023-04-06T20:05:02;9.80;98.00
12223;DHT22;6174;49.058;8.524;2023-04-06T20:07:38;9.80;98.70
12223;DHT22;6174;49.058;8.524;2023-04-06T20:10:06;9.70;99.90
12223;DHT22;6174;49.058;8.524;2023-04-06T20:12:34;9.60;99.90
12223;DHT22;6174;49.058;8.524;2023-04-06T20:15:00;9.50;99.90
12223;DHT22;6174;49.058;8.524;2023-04-06T20:17:29;9.50;99.90
12223;DHT22;6174;49.058;8.524;2023-04-06T20:19:55;9.40;99.90
12223;DHT22;6174;49.058;8.524;2023-04-06T20:22:22;9.40;99.90
12223;DHT22;6174;49.058;8.524;2023-04-06T20:24:49;9.30;99.90
12223;DHT22;6174;49.058;8.524;2023-04-06T20:27:16;9.30;99.90
12223;DHT22;6174;49.058;8.524;2023-04-06T20:29:43;9.30;99.90
12223;DHT22;6174;49.058;8.524;2023-04-06T20:32:10;9.20;99.90
12223;DHT22;6174;49.058;8.524;2023-04-06T20:34:40;9.20;99.90
12223;DHT22;6174;49.058;8.524;2023-04-06T20:37:06;9.10;99.90
12223;DHT22;6174;49.058;8.524;2023-04-06T20:39:34;9.10;99.90
12223;DHT22;6174;49.058;8.524;2023-04-06T20:42:01;9.00;99.90
12223;DHT22;6174;49.058;8.524;2023-04-06T20:44:28;9.00;99.90
12223;DHT22;6174;49.058;8.524;2023-04-06T20:46:55;9.00;99.90
12223;DHT22;6174;49.058;8.524;2023-04-06T20:49:22;9.00;99.90
12223;DHT22;6174;49.058;8.524;2023-04-06T20:51:50;9.00;99.90
12223;DHT22;6174;49.058;8.524;2023-04-06T20:54:17;9.00;99.90